Thunder Bay — CFN6288 — position and weather

sailwx.info

Track history (hours):
 
Tides and Currents Weather Stations Pressure Air Temp Water Temp Dewpoint Dewpoint Depression Visibility Wind Speed Wind Dir Waves Ship Positions

Thunder Bay

Last reported at 2018-Jan-06 04:00 UTC. Time now 2018-Feb-22 06:38 UTC.
Position N 47°24' W 086°24'.
Warning: this ship's position is 47 days out of date.

Length 225 m; draft 7.4 m.

Type: Cargo ship. MMSI: 316023339.

Wind at 24 knots

Barometer 1028.0 mb
Visibility: greater than 0.3 NM

Date/timePositionNaut miles runAvg speedWind from/ knotsBaromVisibWave heightAir tempDewpointWater temp
2018-Jan-06 04:00N 47°24' W 086°24'21110.9 1028.0 0.3
2018-Jan-05 08:38N 47°02' W 091°32'212.3
2018-Jan-05 08:30N 47°01' W 091°34'4 7.9
2018-Jan-05 08:00N 47°01' W 091°40'0 0.1
2018-Jan-05 06:51N 47°01' W 091°40'0 0.0
2018-Jan-05 04:29N 47°01' W 091°40'0 0.0
2018-Jan-05 01:05N 47°01' W 091°40'0 0.0
2018-Jan-05 01:00N 47°01' W 091°40'0 0.0
2018-Jan-05 00:29N 47°01' W 091°40'0 0.0
2018-Jan-04 23:57N 47°01' W 091°40'0 0.0
2018-Jan-04 21:47N 47°01' W 091°40'0 0.5
2018-Jan-04 21:24N 47°01' W 091°40'3 3.2
2018-Jan-04 20:23N 46°58' W 091°42'1 3.6
2018-Jan-04 20:00N 46°56' W 091°42'1 2.2
2018-Jan-04 19:22N 46°58' W 091°42'0 0.3
2018-Jan-04 18:59N 46°58' W 091°42'0 0.2
2018-Jan-04 18:30N 46°58' W 091°42'0 0.4
2018-Jan-04 18:00N 46°58' W 091°42'0 0.1
2018-Jan-04 17:29N 46°58' W 091°42'0 0.3
2018-Jan-04 17:00N 46°58' W 091°42'0 0.3
2018-Jan-04 16:30N 46°58' W 091°42'0 0.7
2018-Jan-04 16:00N 46°58' W 091°42'612.4
2018-Jan-04 15:30N 46°54' W 091°48'612.9
2018-Jan-04 15:00N 46°50' W 091°56'510.9
2018-Jan-04 14:30N 46°47' W 092°02'1 1.0
2018-Jan-04 13:59N 46°46' W 092°03'0 0.1
2018-Jan-04 13:29N 46°46' W 092°02'0 0.2
2018-Jan-04 12:59N 46°46' W 092°03'0 0.1
2018-Jan-04 12:29N 46°46' W 092°03'0 0.0
2018-Jan-04 11:59N 46°46' W 092°03'0 0.0
2018-Jan-04 11:29N 46°46' W 092°03'0 0.1
2018-Jan-04 10:59N 46°46' W 092°02'0 0.1
2018-Jan-04 10:29N 46°46' W 092°03'0 0.0
2018-Jan-04 09:59N 46°46' W 092°03'0 0.1
2018-Jan-04 09:29N 46°46' W 092°03'0 0.0
2018-Jan-04 08:56N 46°46' W 092°03'0 0.0
2018-Jan-04 08:20N 46°46' W 092°03'0 0.1
2018-Jan-04 07:59N 46°46' W 092°03'0 0.0
2018-Jan-04 07:29N 46°46' W 092°03'0 0.0
2018-Jan-04 06:56N 46°46' W 092°02'0 0.0
2018-Jan-04 06:23N 46°46' W 092°02'0 0.2
2018-Jan-04 05:53N 46°46' W 092°03'0 0.1
2018-Jan-04 05:23N 46°46' W 092°03'0 0.0
2018-Jan-04 04:56N 46°46' W 092°03'0 0.1
2018-Jan-04 04:29N 46°46' W 092°03'0 0.0
2018-Jan-04 03:56N 46°46' W 092°03'0 0.0
2018-Jan-04 03:26N 46°46' W 092°03'0 0.2
2018-Jan-04 02:59N 46°46' W 092°02'0 0.0
2018-Jan-04 02:29N 46°46' W 092°02'0 0.0
2018-Jan-04 01:59N 46°46' W 092°03'0 0.1
2018-Jan-04 01:29N 46°46' W 092°02'0 0.1
2018-Jan-04 00:59N 46°46' W 092°02'0 0.0
2018-Jan-04 00:29N 46°46' W 092°02'0 0.1
2018-Jan-03 23:59N 46°46' W 092°02'0 0.0
2018-Jan-03 23:26N 46°46' W 092°02'0 0.0
2018-Jan-03 22:59N 46°46' W 092°02'0 0.0
2018-Jan-03 22:29N 46°46' W 092°02'0 0.0
2018-Jan-03 21:59N 46°46' W 092°02'0 0.0
2018-Jan-03 21:29N 46°46' W 092°02'0 0.0
2018-Jan-03 20:59N 46°46' W 092°02'0 0.0
2018-Jan-03 20:29N 46°46' W 092°02'0 0.1
2018-Jan-03 19:59N 46°47' W 092°02'0 0.2
2018-Jan-03 19:29N 46°46' W 092°02'0 0.0
2018-Jan-03 18:53N 46°46' W 092°02'0 0.0
2018-Jan-03 18:20N 46°46' W 092°02'0 0.1
2018-Jan-03 17:59N 46°46' W 092°02'0 0.1
2018-Jan-03 17:23N 46°46' W 092°02'0 0.0
2018-Jan-03 17:00N 46°46' W 092°02'0 0.0
2018-Jan-03 16:26N 46°46' W 092°02'0 0.1
2018-Jan-03 15:56N 46°46' W 092°02'0 0.1
2018-Jan-03 15:29N 46°46' W 092°02'0 0.1
2018-Jan-03 14:56N 46°46' W 092°02'0 0.1
2018-Jan-03 14:26N 46°46' W 092°02'0 0.0
2018-Jan-03 13:59N 46°46' W 092°02'0 0.0
2018-Jan-03 13:29N 46°46' W 092°02'0 0.0
2018-Jan-03 12:59N 46°46' W 092°02'0 0.0
2018-Jan-03 12:29N 46°46' W 092°02'0 0.0
2018-Jan-03 11:47N 46°46' W 092°02'0 0.1
2018-Jan-03 11:29N 46°46' W 092°02'0 0.1
2018-Jan-03 10:59N 46°46' W 092°02'0 0.1
2018-Jan-03 10:29N 46°46' W 092°02'0 0.1
2018-Jan-03 09:59N 46°46' W 092°02'0 0.0
2018-Jan-03 09:29N 46°46' W 092°02'0 0.1
2018-Jan-03 08:50N 46°46' W 092°02'0 0.1
2018-Jan-03 08:20N 46°46' W 092°02'0 0.1
2018-Jan-03 07:50N 46°46' W 092°02'0 0.0
2018-Jan-03 07:20N 46°46' W 092°02'0 0.0
2018-Jan-03 06:47N 46°46' W 092°02'0 0.0
2018-Jan-03 06:23N 46°46' W 092°02'0 0.0
2018-Jan-03 05:56N 46°46' W 092°02'0 0.0
2018-Jan-03 05:29N 46°46' W 092°02'0 0.1
2018-Jan-03 04:59N 46°46' W 092°02'0 0.0
2018-Jan-03 04:23N 46°46' W 092°02'0 0.0
2018-Jan-03 03:59N 46°46' W 092°02'0 0.0
2018-Jan-03 03:26N 46°46' W 092°02'0 0.1
2018-Jan-03 03:00N 46°46' W 092°02'0 0.0
2018-Jan-03 02:30N 46°46' W 092°02'2 4.0
2018-Jan-03 02:00N 46°47' W 092°05'2 3.5
2018-Jan-03 01:31N 46°45' W 092°06'1 2.7
2018-Jan-03 01:00N 46°45' W 092°07'0 0.6
2018-Jan-03 00:31N 46°44' W 092°07'0 0.0
2018-Jan-03 00:00N 46°44' W 092°07'0 0.0
2018-Jan-02 23:30N 46°44' W 092°07'0 0.0
2018-Jan-02 23:00N 46°44' W 092°07'0 0.0
2018-Jan-02 22:30N 46°44' W 092°07'0 0.0
2018-Jan-02 22:00N 46°44' W 092°07'0 0.0
2018-Jan-02 21:29N 46°44' W 092°07'0 0.0
2018-Jan-02 21:00N 46°44' W 092°07'0 0.0
2018-Jan-02 20:30N 46°44' W 092°07'0 0.0
2018-Jan-02 20:00N 46°44' W 092°07'0 0.0
2018-Jan-02 19:30N 46°44' W 092°07'0 0.0
2018-Jan-02 19:00N 46°44' W 092°07'0 0.5
2018-Jan-02 18:30N 46°45' W 092°07'1 2.2
2018-Jan-02 18:00N 46°45' W 092°06'2 3.7
2018-Jan-02 17:31N 46°47' W 092°05'5 9.2
2018-Jan-02 17:00N 46°49' W 091°59'4 8.8
2018-Jan-02 16:30N 46°51' W 091°54'4 7.8
2018-Jan-02 16:00N 46°53' W 091°49'4 7.9
2018-Jan-02 15:30N 46°56' W 091°45'28 8.1
2018-Jan-02 12:00N 47°06' W 091°06'4310.9 230 / 23
2018-Jan-02 08:00N 47°42' W 090°30'5811.5 260 / 251024.010.8 -10.0
2018-Jan-02 03:00N 48°06' W 089°12'172 9.1 280 / 201026.010.8 -11.0
2018-Jan-01 08:00N 47°18' W 085°06'67 8.3 010 / 221025.0 0.5 -13.0
2018-Jan-01 00:00N 46°18' W 084°24'46 3.2 270 / 25 -7.0
2017-Dec-31 09:17N 45°43' W 083°40'310.0
2017-Dec-31 09:00N 45°41' W 083°37'5 9.7
2017-Dec-31 08:30N 45°37' W 083°33'5 9.4
2017-Dec-31 08:01N 45°33' W 083°29'5 9.1
2017-Dec-31 07:30N 45°30' W 083°25'611.3
2017-Dec-31 07:00N 45°24' W 083°24'22 7.3 330 / 201025.0 5.4 -10.0
2017-Dec-31 04:00N 45°06' W 083°06'4916.4 010 / 161025.0 1.1 -8.0
2017-Dec-31 01:00N 44°24' W 082°30'15 2.5 350 / 22
2017-Dec-30 19:00N 44°12' W 082°42'26 8.5 010 / 331015.0 1.1 -5.0
2017-Dec-30 16:00N 43°48' W 082°30'   260 / 241011.0 5.4 -8.0
2017-Dec-27 10:00N 42°00' W 081°06'25 8.4 300 / 21
2017-Dec-27 07:00N 42°18' W 080°42'3210.7 300 / 241029.010.8 -9.0
2017-Dec-27 04:00N 42°36' W 080°06'   300 / 251027.010.8 10.0
Track history (hours):
 
Tides and Currents Weather Stations Pressure Air Temp Water Temp Dewpoint Dewpoint Depression Visibility Wind Speed Wind Dir Waves Ship Positions

Thunder Bay

Last reported at 2018-Jan-06 04:00 UTC. Time now 2018-Feb-22 06:38 UTC.
Position N 47°24' W 086°24'.
Warning: this ship's position is 47 days out of date.

Length 225 m; draft 7.4 m.

Type: Cargo ship. MMSI: 316023339.

Wind at 24 knots

Barometer 1028.0 mb
Visibility: greater than 0.3 NM

Date/timePositionNaut miles runAvg speedWind from/ knotsBaromVisibWave heightAir tempDewpointWater temp
2018-Jan-06 04:00N 47°24' W 086°24'21110.9 1028.0 0.3
2018-Jan-05 08:38N 47°02' W 091°32'212.3
2018-Jan-05 08:30N 47°01' W 091°34'4 7.9
2018-Jan-05 08:00N 47°01' W 091°40'0 0.1
2018-Jan-05 06:51N 47°01' W 091°40'0 0.0
2018-Jan-05 04:29N 47°01' W 091°40'0 0.0
2018-Jan-05 01:05N 47°01' W 091°40'0 0.0
2018-Jan-05 01:00N 47°01' W 091°40'0 0.0
2018-Jan-05 00:29N 47°01' W 091°40'0 0.0
2018-Jan-04 23:57N 47°01' W 091°40'0 0.0
2018-Jan-04 21:47N 47°01' W 091°40'0 0.5
2018-Jan-04 21:24N 47°01' W 091°40'3 3.2
2018-Jan-04 20:23N 46°58' W 091°42'1 3.6
2018-Jan-04 20:00N 46°56' W 091°42'1 2.2
2018-Jan-04 19:22N 46°58' W 091°42'0 0.3
2018-Jan-04 18:59N 46°58' W 091°42'0 0.2
2018-Jan-04 18:30N 46°58' W 091°42'0 0.4
2018-Jan-04 18:00N 46°58' W 091°42'0 0.1
2018-Jan-04 17:29N 46°58' W 091°42'0 0.3
2018-Jan-04 17:00N 46°58' W 091°42'0 0.3
2018-Jan-04 16:30N 46°58' W 091°42'0 0.7
2018-Jan-04 16:00N 46°58' W 091°42'612.4
2018-Jan-04 15:30N 46°54' W 091°48'612.9
2018-Jan-04 15:00N 46°50' W 091°56'510.9
2018-Jan-04 14:30N 46°47' W 092°02'1 1.0
2018-Jan-04 13:59N 46°46' W 092°03'0 0.1
2018-Jan-04 13:29N 46°46' W 092°02'0 0.2
2018-Jan-04 12:59N 46°46' W 092°03'0 0.1
2018-Jan-04 12:29N 46°46' W 092°03'0 0.0
2018-Jan-04 11:59N 46°46' W 092°03'0 0.0
2018-Jan-04 11:29N 46°46' W 092°03'0 0.1
2018-Jan-04 10:59N 46°46' W 092°02'0 0.1
2018-Jan-04 10:29N 46°46' W 092°03'0 0.0
2018-Jan-04 09:59N 46°46' W 092°03'0 0.1
2018-Jan-04 09:29N 46°46' W 092°03'0 0.0
2018-Jan-04 08:56N 46°46' W 092°03'0 0.0
2018-Jan-04 08:20N 46°46' W 092°03'0 0.1
2018-Jan-04 07:59N 46°46' W 092°03'0 0.0
2018-Jan-04 07:29N 46°46' W 092°03'0 0.0
2018-Jan-04 06:56N 46°46' W 092°02'0 0.0
2018-Jan-04 06:23N 46°46' W 092°02'0 0.2
2018-Jan-04 05:53N 46°46' W 092°03'0 0.1
2018-Jan-04 05:23N 46°46' W 092°03'0 0.0
2018-Jan-04 04:56N 46°46' W 092°03'0 0.1
2018-Jan-04 04:29N 46°46' W 092°03'0 0.0
2018-Jan-04 03:56N 46°46' W 092°03'0 0.0
2018-Jan-04 03:26N 46°46' W 092°03'0 0.2
2018-Jan-04 02:59N 46°46' W 092°02'0 0.0
2018-Jan-04 02:29N 46°46' W 092°02'0 0.0
2018-Jan-04 01:59N 46°46' W 092°03'0 0.1
2018-Jan-04 01:29N 46°46' W 092°02'0 0.1
2018-Jan-04 00:59N 46°46' W 092°02'0 0.0
2018-Jan-04 00:29N 46°46' W 092°02'0 0.1
2018-Jan-03 23:59N 46°46' W 092°02'0 0.0
2018-Jan-03 23:26N 46°46' W 092°02'0 0.0
2018-Jan-03 22:59N 46°46' W 092°02'0 0.0
2018-Jan-03 22:29N 46°46' W 092°02'0 0.0
2018-Jan-03 21:59N 46°46' W 092°02'0 0.0
2018-Jan-03 21:29N 46°46' W 092°02'0 0.0
2018-Jan-03 20:59N 46°46' W 092°02'0 0.0
2018-Jan-03 20:29N 46°46' W 092°02'0 0.1
2018-Jan-03 19:59N 46°47' W 092°02'0 0.2
2018-Jan-03 19:29N 46°46' W 092°02'0 0.0
2018-Jan-03 18:53N 46°46' W 092°02'0 0.0
2018-Jan-03 18:20N 46°46' W 092°02'0 0.1
2018-Jan-03 17:59N 46°46' W 092°02'0 0.1
2018-Jan-03 17:23N 46°46' W 092°02'0 0.0
2018-Jan-03 17:00N 46°46' W 092°02'0 0.0
2018-Jan-03 16:26N 46°46' W 092°02'0 0.1
2018-Jan-03 15:56N 46°46' W 092°02'0 0.1
2018-Jan-03 15:29N 46°46' W 092°02'0 0.1
2018-Jan-03 14:56N 46°46' W 092°02'0 0.1
2018-Jan-03 14:26N 46°46' W 092°02'0 0.0
2018-Jan-03 13:59N 46°46' W 092°02'0 0.0
2018-Jan-03 13:29N 46°46' W 092°02'0 0.0
2018-Jan-03 12:59N 46°46' W 092°02'0 0.0
2018-Jan-03 12:29N 46°46' W 092°02'0 0.0
2018-Jan-03 11:47N 46°46' W 092°02'0 0.1
2018-Jan-03 11:29N 46°46' W 092°02'0 0.1
2018-Jan-03 10:59N 46°46' W 092°02'0 0.1
2018-Jan-03 10:29N 46°46' W 092°02'0 0.1
2018-Jan-03 09:59N 46°46' W 092°02'0 0.0
2018-Jan-03 09:29N 46°46' W 092°02'0 0.1
2018-Jan-03 08:50N 46°46' W 092°02'0 0.1
2018-Jan-03 08:20N 46°46' W 092°02'0 0.1
2018-Jan-03 07:50N 46°46' W 092°02'0 0.0
2018-Jan-03 07:20N 46°46' W 092°02'0 0.0
2018-Jan-03 06:47N 46°46' W 092°02'0 0.0
2018-Jan-03 06:23N 46°46' W 092°02'0 0.0
2018-Jan-03 05:56N 46°46' W 092°02'0 0.0
2018-Jan-03 05:29N 46°46' W 092°02'0 0.1
2018-Jan-03 04:59N 46°46' W 092°02'0 0.0
2018-Jan-03 04:23N 46°46' W 092°02'0 0.0
2018-Jan-03 03:59N 46°46' W 092°02'0 0.0
2018-Jan-03 03:26N 46°46' W 092°02'0 0.1
2018-Jan-03 03:00N 46°46' W 092°02'0 0.0
2018-Jan-03 02:30N 46°46' W 092°02'2 4.0
2018-Jan-03 02:00N 46°47' W 092°05'2 3.5
2018-Jan-03 01:31N 46°45' W 092°06'1 2.7
2018-Jan-03 01:00N 46°45' W 092°07'0 0.6
2018-Jan-03 00:31N 46°44' W 092°07'0 0.0
2018-Jan-03 00:00N 46°44' W 092°07'0 0.0
2018-Jan-02 23:30N 46°44' W 092°07'0 0.0
2018-Jan-02 23:00N 46°44' W 092°07'0 0.0
2018-Jan-02 22:30N 46°44' W 092°07'0 0.0
2018-Jan-02 22:00N 46°44' W 092°07'0 0.0
2018-Jan-02 21:29N 46°44' W 092°07'0 0.0
2018-Jan-02 21:00N 46°44' W 092°07'0 0.0
2018-Jan-02 20:30N 46°44' W 092°07'0 0.0
2018-Jan-02 20:00N 46°44' W 092°07'0 0.0
2018-Jan-02 19:30N 46°44' W 092°07'0 0.0
2018-Jan-02 19:00N 46°44' W 092°07'0 0.5
2018-Jan-02 18:30N 46°45' W 092°07'1 2.2
2018-Jan-02 18:00N 46°45' W 092°06'2 3.7
2018-Jan-02 17:31N 46°47' W 092°05'5 9.2
2018-Jan-02 17:00N 46°49' W 091°59'4 8.8
2018-Jan-02 16:30N 46°51' W 091°54'4 7.8
2018-Jan-02 16:00N 46°53' W 091°49'4 7.9
2018-Jan-02 15:30N 46°56' W 091°45'28 8.1
2018-Jan-02 12:00N 47°06' W 091°06'4310.9 230 / 23
2018-Jan-02 08:00N 47°42' W 090°30'5811.5 260 / 251024.010.8 -10.0
2018-Jan-02 03:00N 48°06' W 089°12'172 9.1 280 / 201026.010.8 -11.0
2018-Jan-01 08:00N 47°18' W 085°06'67 8.3 010 / 221025.0 0.5 -13.0
2018-Jan-01 00:00N 46°18' W 084°24'46 3.2 270 / 25 -7.0
2017-Dec-31 09:17N 45°43' W 083°40'310.0
2017-Dec-31 09:00N 45°41' W 083°37'5 9.7
2017-Dec-31 08:30N 45°37' W 083°33'5 9.4
2017-Dec-31 08:01N 45°33' W 083°29'5 9.1
2017-Dec-31 07:30N 45°30' W 083°25'611.3
2017-Dec-31 07:00N 45°24' W 083°24'22 7.3 330 / 201025.0 5.4 -10.0
2017-Dec-31 04:00N 45°06' W 083°06'4916.4 010 / 161025.0 1.1 -8.0
2017-Dec-31 01:00N 44°24' W 082°30'15 2.5 350 / 22
2017-Dec-30 19:00N 44°12' W 082°42'26 8.5 010 / 331015.0 1.1 -5.0
2017-Dec-30 16:00N 43°48' W 082°30'   260 / 241011.0 5.4 -8.0
2017-Dec-27 10:00N 42°00' W 081°06'25 8.4 300 / 21
2017-Dec-27 07:00N 42°18' W 080°42'3210.7 300 / 241029.010.8 -9.0
2017-Dec-27 04:00N 42°36' W 080°06'   300 / 251027.010.8 10.0

Dump ship's entire track history